createdAt,value
2018-02-06T00:00:44.014Z,31.39
2018-02-06T00:01:44.057Z,31.39
2018-02-06T00:02:43.980Z,31.68
2018-02-06T00:03:44.022Z,31.78
2018-02-06T00:04:44.262Z,31.76
2018-02-06T00:05:43.972Z,31.97
2018-02-06T00:06:43.950Z,31.59
2018-02-06T00:07:43.985Z,31.49
2018-02-06T00:08:43.946Z,31.68
2018-02-06T00:10:43.907Z,31.68
2018-02-06T00:11:44.236Z,31.39
2018-02-06T00:12:43.898Z,31.68
2018-02-06T00:13:43.897Z,31.86
2018-02-06T00:14:43.907Z,31.78
2018-02-06T00:15:43.911Z,31.78
2018-02-06T00:16:43.872Z,31.86
2018-02-06T00:17:44.175Z,31.87
2018-02-06T00:18:44.175Z,31.39
2018-02-06T00:19:43.934Z,31.39
2018-02-06T00:20:43.874Z,31.49
2018-02-06T00:21:43.915Z,31.10
2018-02-06T00:22:43.845Z,31.39
2018-02-06T00:23:43.789Z,31.59
2018-02-06T00:24:43.813Z,31.59
2018-02-06T00:25:44.078Z,31.59
2018-02-06T00:26:43.753Z,31.97
2018-02-06T00:27:43.766Z,31.68
2018-02-06T00:28:43.789Z,31.39
2018-02-06T00:29:43.745Z,31.76
2018-02-06T00:30:43.743Z,31.39
2018-02-06T00:31:43.746Z,31.39
2018-02-06T00:32:44.049Z,31.39
2018-02-06T00:33:43.711Z,31.39
2018-02-06T00:34:43.706Z,31.39
2018-02-06T00:35:43.700Z,31.39
2018-02-06T00:36:43.682Z,31.49
2018-02-06T00:37:43.685Z,31.59
2018-02-06T00:38:43.645Z,31.59
2018-02-06T00:39:43.946Z,31.39
2018-02-06T00:40:43.655Z,31.29
2018-02-06T00:41:43.617Z,31.49
2018-02-06T00:42:43.904Z,31.67
2018-02-06T00:43:43.596Z,31.86
2018-02-06T00:44:43.914Z,31.86
2018-02-06T00:45:43.574Z,31.68
2018-02-06T00:46:44.039Z,31.39
2018-02-06T00:47:43.562Z,31.39
2018-02-06T00:48:43.573Z,31.68
2018-02-06T00:49:43.594Z,31.29
2018-02-06T00:51:43.545Z,31.47
2018-02-06T00:52:43.899Z,31.76
2018-02-06T00:53:43.520Z,31.96
2018-02-06T00:54:43.500Z,31.86
2018-02-06T00:55:43.521Z,31.86
2018-02-06T00:56:43.482Z,31.86
2018-02-06T00:57:43.530Z,31.37
2018-02-06T00:58:43.771Z,31.39
2018-02-06T01:00:43.565Z,30.99
2018-02-06T01:01:43.476Z,31.01
2018-02-06T01:02:43.454Z,31.39
2018-02-06T01:03:43.420Z,31.28
2018-02-06T01:04:43.743Z,31.49
2018-02-06T01:05:43.385Z,31.47
2018-02-06T01:06:43.458Z,31.67
2018-02-06T01:07:43.689Z,31.67
2018-02-06T01:08:43.392Z,31.76
2018-02-06T01:09:43.865Z,31.67
2018-02-06T01:10:43.734Z,31.39
2018-02-06T01:11:43.349Z,30.91
2018-02-06T01:12:43.336Z,31.47
2018-02-06T01:13:43.393Z,31.47
2018-02-06T01:14:43.318Z,31.28
2018-02-06T01:15:43.314Z,31.67
2018-02-06T01:16:43.655Z,31.57
2018-02-06T01:17:43.284Z,31.67
2018-02-06T01:18:43.329Z,31.57
2018-02-06T01:19:43.265Z,31.47
2018-02-06T01:20:43.300Z,31.37
2018-02-06T01:21:43.288Z,31.47
2018-02-06T01:22:43.569Z,31.47
2018-02-06T01:23:43.260Z,31.57
2018-02-06T01:24:43.242Z,31.37
2018-02-06T01:25:43.241Z,31.96
2018-02-06T01:27:43.231Z,31.37
2018-02-06T01:28:43.487Z,31.49
2018-02-06T01:29:43.231Z,31.57
2018-02-06T01:30:43.179Z,31.18
2018-02-06T01:31:43.204Z,31.47
2018-02-06T01:32:43.246Z,31.28
2018-02-06T01:33:43.155Z,31.67
2018-02-06T01:34:43.831Z,31.86
2018-02-06T01:35:43.145Z,31.47
2018-02-06T01:36:43.125Z,31.76
2018-02-06T01:37:43.145Z,31.76
2018-02-06T01:38:43.115Z,31.28
2018-02-06T01:39:43.091Z,31.28
2018-02-06T01:40:43.091Z,31.57
2018-02-06T01:42:43.454Z,31.86
2018-02-06T01:43:43.070Z,31.76
2018-02-06T01:44:43.114Z,31.86
2018-02-06T01:45:43.040Z,31.57
2018-02-06T01:46:43.025Z,31.76
2018-02-06T01:47:43.029Z,31.86
2018-02-06T01:48:43.030Z,31.67
2018-02-06T01:49:43.358Z,31.76
2018-02-06T01:50:43.018Z,31.86
2018-02-06T01:51:43.006Z,31.76
2018-02-06T01:52:42.976Z,31.76
2018-02-06T01:53:42.990Z,31.96
2018-02-06T01:54:43.007Z,31.76
2018-02-06T01:55:43.000Z,32.06
2018-02-06T01:56:43.329Z,31.67
2018-02-06T01:57:43.426Z,31.76
2018-02-06T01:58:42.937Z,31.67
2018-02-06T01:59:43.245Z,31.67
2018-02-06T02:00:42.914Z,31.67
2018-02-06T02:01:42.982Z,31.86
2018-02-06T02:02:42.907Z,31.86
2018-02-06T02:03:43.179Z,31.57
2018-02-06T02:04:42.956Z,31.76
2018-02-06T02:05:43.435Z,31.47
2018-02-06T02:06:42.835Z,31.57
2018-02-06T02:07:42.895Z,31.37
2018-02-06T02:08:42.898Z,31.86
2018-02-06T02:09:42.838Z,31.86
2018-02-06T02:10:43.156Z,31.76
2018-02-06T02:11:42.861Z,31.86
2018-02-06T02:12:42.923Z,31.76
2018-02-06T02:13:42.840Z,31.86
2018-02-06T02:14:42.787Z,31.76
2018-02-06T02:17:42.779Z,31.67
2018-02-06T02:18:43.130Z,31.86
2018-02-06T02:21:42.727Z,31.86
2018-02-06T02:22:43.010Z,31.76
2018-02-06T02:23:42.694Z,31.86
2018-02-06T02:24:43.237Z,31.76
2018-02-06T02:25:43.045Z,31.96
2018-02-06T02:26:42.681Z,31.86
2018-02-06T02:27:42.671Z,31.76
2018-02-06T02:28:42.694Z,31.76
2018-02-06T02:29:42.662Z,31.96
2018-02-06T02:30:42.659Z,31.96
2018-02-06T02:31:42.968Z,31.86
2018-02-06T02:32:42.613Z,31.76
2018-02-06T02:33:43.012Z,31.76
2018-02-06T02:34:42.704Z,31.67
2018-02-06T02:35:42.631Z,31.76
2018-02-06T02:36:42.586Z,32.24
2018-02-06T02:37:42.970Z,31.76
2018-02-06T02:41:42.555Z,31.76
2018-02-06T04:38:41.482Z,31.47
2018-02-06T04:39:41.516Z,31.47
2018-02-06T04:40:41.436Z,31.76
2018-02-06T04:41:41.808Z,31.67
2018-02-06T04:42:41.431Z,31.37
2018-02-06T04:43:41.437Z,31.09
2018-02-06T04:44:41.434Z,31.47
2018-02-06T04:45:41.410Z,31.47
2018-02-06T04:46:41.449Z,31.09
2018-02-06T04:47:41.410Z,31.47
2018-02-06T04:48:41.679Z,31.37
2018-02-06T04:49:41.383Z,31.18
2018-02-06T04:50:41.459Z,31.09
2018-02-06T04:51:41.371Z,31.09
2018-02-06T04:52:41.683Z,31.09
2018-02-06T04:54:41.534Z,31.47
2018-02-06T04:56:41.652Z,30.91
2018-02-06T04:57:41.321Z,30.79
2018-02-06T04:58:41.338Z,31.09
2018-02-06T04:59:41.315Z,31.18
2018-02-06T05:00:41.260Z,31.09
2018-02-06T05:01:41.316Z,31.09
2018-02-06T05:02:41.286Z,31.57
2018-02-06T05:03:41.559Z,31.28
2018-02-06T05:04:41.252Z,31.09
2018-02-06T05:05:41.215Z,30.99
2018-02-06T05:06:41.277Z,31.18
2018-02-06T05:07:41.250Z,31.09
2018-02-06T05:08:41.233Z,30.99
2018-02-06T05:09:41.201Z,31.37
2018-02-06T05:10:41.587Z,30.99
2018-02-06T05:11:41.165Z,31.37
2018-02-06T05:12:41.149Z,31.37
2018-02-06T05:13:41.155Z,31.57
2018-02-06T05:14:41.135Z,31.57
2018-02-06T05:15:41.140Z,31.47
2018-02-06T05:16:41.189Z,31.37
2018-02-06T05:17:41.617Z,31.09
2018-02-06T05:18:41.096Z,31.10
2018-02-06T05:19:41.321Z,30.99
2018-02-06T05:21:41.426Z,31.57
2018-02-06T05:22:41.049Z,31.57
2018-02-06T05:23:41.040Z,31.10
2018-02-06T05:24:41.513Z,31.57
2018-02-06T05:25:41.242Z,31.01
2018-02-06T05:26:41.066Z,31.01
2018-02-06T05:27:41.014Z,30.71
2018-02-06T05:28:41.005Z,30.99
2018-02-06T05:29:40.987Z,31.18
2018-02-06T05:30:41.028Z,30.71
2018-02-06T05:31:41.273Z,31.09
2018-02-06T05:32:41.018Z,31.09
2018-02-06T05:33:40.949Z,31.09
2018-02-06T05:34:40.970Z,31.09
2018-02-06T05:35:40.949Z,31.28
2018-02-06T05:36:40.931Z,30.89
2018-02-06T05:37:41.230Z,31.47
2018-02-06T05:38:40.923Z,31.28
2018-02-06T05:39:40.959Z,31.01
2018-02-06T05:40:41.193Z,31.09
2018-02-06T05:41:40.882Z,31.09
2018-02-06T05:42:41.173Z,30.99
2018-02-06T05:43:41.245Z,30.79
2018-02-06T05:44:40.929Z,30.91
2018-02-06T05:45:40.931Z,30.69
2018-02-06T05:46:40.851Z,30.89
2018-02-06T05:47:40.868Z,30.79
2018-02-06T05:48:40.830Z,30.81
2018-02-06T05:52:41.167Z,31.09
2018-02-06T05:53:40.782Z,31.01
2018-02-06T05:54:40.839Z,31.09
2018-02-06T05:55:40.818Z,30.91
2018-02-06T05:56:40.797Z,30.99
2018-02-06T05:57:40.780Z,31.28
2018-02-06T05:58:41.064Z,30.71
2018-02-06T05:59:40.765Z,30.62
2018-02-06T06:00:40.810Z,30.81
2018-02-06T06:01:40.747Z,30.81
2018-02-06T06:02:40.693Z,31.09
2018-02-06T06:03:40.729Z,31.20
2018-02-06T06:05:41.002Z,30.52
2018-02-06T06:06:40.680Z,30.62
2018-02-06T06:07:40.955Z,30.52
2018-02-06T06:08:40.714Z,30.79
2018-02-06T06:10:40.986Z,31.28
2018-02-06T06:12:40.633Z,30.52
2018-02-06T06:13:40.623Z,30.62
2018-02-06T06:14:40.591Z,30.62
2018-02-06T06:15:40.611Z,30.71
2018-02-06T06:16:40.938Z,30.32
2018-02-06T06:17:40.755Z,30.60
2018-02-06T06:18:40.551Z,30.42
2018-02-06T06:19:40.572Z,30.91
2018-02-06T06:20:40.577Z,30.60
2018-02-06T06:21:40.545Z,30.51
2018-02-06T06:22:40.560Z,30.79
2018-02-06T06:23:41.301Z,30.52
2018-02-06T06:24:40.600Z,30.79
2018-02-06T06:25:40.557Z,30.41
2018-02-06T06:26:40.468Z,30.99
2018-02-06T06:27:40.496Z,30.60
2018-02-06T06:28:40.480Z,30.69
2018-02-06T06:29:40.488Z,30.89
2018-02-06T06:30:41.174Z,30.79
2018-02-06T06:31:40.436Z,30.51
2018-02-06T06:32:40.946Z,30.60
2018-02-06T06:33:40.461Z,30.23
2018-02-06T06:35:40.453Z,30.52
2018-02-06T06:36:40.451Z,30.81
2018-02-06T06:37:40.691Z,30.91
2018-02-06T06:38:40.388Z,30.62
2018-02-06T06:39:40.387Z,30.71
2018-02-06T06:40:40.433Z,30.62
2018-02-06T06:41:40.356Z,31.10
2018-02-06T06:42:40.426Z,30.89
2018-02-06T06:43:40.350Z,30.81
2018-02-06T06:44:40.635Z,31.20
2018-02-06T06:45:40.389Z,30.91
2018-02-06T06:46:40.337Z,30.91
2018-02-06T06:47:40.296Z,30.91
2018-02-06T06:48:40.306Z,30.71
2018-02-06T06:49:40.380Z,30.62
2018-02-06T06:50:40.321Z,31.20
2018-02-06T06:51:40.737Z,30.71
2018-02-06T06:52:40.370Z,31.01
2018-02-06T06:53:40.255Z,30.62
2018-02-06T06:54:40.231Z,30.62
2018-02-06T06:55:40.530Z,30.71
2018-02-06T06:56:40.201Z,31.29
2018-02-06T06:57:40.599Z,30.81
2018-02-06T06:58:40.610Z,30.91
2018-02-06T06:59:40.251Z,31.10
2018-02-06T07:00:40.158Z,30.81
2018-02-06T07:01:40.197Z,30.91
2018-02-06T07:02:40.146Z,30.62
2018-02-06T07:03:40.182Z,31.01
2018-02-06T07:04:40.203Z,31.01
2018-02-06T07:06:40.489Z,30.81
2018-02-06T07:07:40.123Z,31.01
2018-02-06T07:08:40.173Z,31.10
2018-02-06T07:09:40.155Z,30.71
2018-02-06T07:10:40.205Z,30.71
2018-02-06T07:11:40.050Z,30.91
2018-02-06T07:12:40.089Z,30.71
2018-02-06T07:13:40.499Z,30.71
2018-02-06T07:14:40.047Z,30.71
2018-02-06T07:15:40.313Z,30.81
2018-02-06T07:16:40.065Z,31.01
2018-02-06T07:17:40.094Z,31.78
2018-02-06T07:18:40.244Z,31.87
2018-02-06T07:19:40.359Z,31.37
2018-02-06T07:20:40.379Z,31.78
2018-02-06T07:21:40.060Z,31.67
2018-02-06T07:22:40.493Z,31.96
2018-02-06T07:23:40.040Z,31.97
2018-02-06T07:24:39.957Z,31.39
2018-02-06T07:25:40.391Z,31.86
2018-02-06T07:26:40.014Z,31.18
2018-02-06T07:27:39.945Z,31.86
2018-02-06T07:28:39.972Z,31.96
2018-02-06T07:29:39.971Z,31.78
2018-02-06T07:30:39.999Z,31.78
2018-02-06T07:31:40.258Z,31.76
2018-02-06T07:32:39.886Z,31.86
2018-02-06T07:33:39.966Z,33.02
2018-02-06T07:34:39.898Z,31.87
2018-02-06T07:36:39.838Z,31.86
2018-02-06T07:37:40.356Z,31.57
2018-02-06T07:38:39.924Z,31.76
2018-02-06T07:39:39.858Z,31.87
2018-02-06T07:40:39.914Z,31.97
2018-02-06T07:41:39.991Z,31.97
2018-02-06T07:42:39.871Z,31.68
2018-02-06T07:43:40.618Z,31.49
2018-02-06T07:44:39.802Z,31.78
2018-02-06T07:45:39.859Z,31.59
2018-02-06T07:46:39.827Z,31.67
2018-02-06T07:47:40.231Z,31.87
2018-02-06T07:48:39.714Z,31.67
2018-02-06T07:49:40.138Z,31.86
2018-02-06T07:50:39.733Z,31.67
2018-02-06T07:51:40.085Z,31.78
2018-02-06T07:52:39.671Z,31.86
2018-02-06T07:53:39.922Z,31.87
2018-02-06T07:54:39.713Z,31.87
2018-02-06T07:55:40.134Z,32.06
2018-02-06T07:56:39.658Z,31.39
2018-02-06T07:57:39.632Z,31.49
2018-02-06T07:58:39.730Z,31.29
2018-02-06T07:59:39.728Z,31.87
2018-02-06T08:00:39.643Z,31.78
2018-02-06T08:01:39.752Z,31.68
2018-02-06T08:02:40.142Z,31.59
2018-02-06T08:03:39.813Z,31.87
2018-02-06T08:04:39.559Z,31.29
2018-02-06T08:05:39.820Z,31.20
2018-02-06T08:06:39.603Z,31.10
2018-02-06T08:07:39.595Z,31.10
2018-02-06T08:08:39.602Z,31.10
2018-02-06T08:09:39.922Z,31.39
2018-02-06T08:10:39.999Z,31.21
2018-02-06T08:11:39.556Z,31.02
2018-02-06T08:12:40.537Z,31.12
2018-02-06T08:13:39.585Z,31.02
2018-02-06T08:14:39.583Z,31.41
2018-02-06T08:15:39.468Z,31.21
2018-02-06T08:16:39.766Z,31.02
2018-02-06T08:17:39.575Z,30.92
2018-02-06T08:18:39.531Z,31.41
2018-02-06T08:19:39.532Z,30.92
2018-02-06T08:20:39.543Z,31.31
2018-02-06T08:21:39.528Z,31.02
2018-02-06T08:22:39.503Z,30.73
2018-02-06T08:23:40.106Z,30.92
2018-02-06T08:24:39.573Z,31.12
2018-02-06T08:26:39.443Z,31.21
2018-02-06T08:27:39.439Z,31.12
2018-02-06T08:28:39.474Z,30.92
2018-02-06T08:29:39.402Z,30.63
2018-02-06T08:30:39.767Z,30.92
2018-02-06T08:31:39.409Z,30.92
2018-02-06T08:32:39.342Z,30.73
2018-02-06T08:33:39.599Z,31.02
2018-02-06T08:34:39.391Z,30.73
2018-02-06T08:35:39.415Z,30.82
2018-02-06T08:36:39.700Z,30.92
2018-02-06T08:38:39.707Z,30.92
2018-02-06T08:39:39.349Z,30.73
2018-02-06T08:40:39.427Z,31.02
2018-02-06T08:41:39.449Z,30.92
2018-02-06T08:42:39.428Z,30.82
2018-02-06T08:43:39.478Z,30.63
2018-02-06T08:44:39.252Z,30.35
2018-02-06T08:45:39.710Z,30.84
2018-02-06T08:46:39.327Z,31.04
2018-02-06T08:48:39.217Z,30.35
2018-02-06T08:49:39.250Z,30.45
2018-02-06T08:50:39.175Z,30.35
